Moline, IL (61265)

11:08 PM CST on February 09, 2016 (GMT -0600)
Central Bettendorf | | Change Station
CLOSE
Current Station
Personal Weather Station
Location: Bettendorf, IA
Elevation: 665 ft
Nearby Weather Stations

Elev 665 ft 41.53 °N, 90.50 °W | Updated 7 seconds ago

Clear
Clear
12.0 °F
Feels Like 5 °F
N
4.2
Wind Variable Wind from NW
Gusts 4.5 mph

Today
High -- | Low -- °F
--% Chance of Precip.
Yesterday
High -- | Low -- °F
Precip. -- in
Pressure 30.12 in
Visibility 10.0 miles
Clouds Clear
Windchill 5 °F
Dew Point -11 °F
Humidity 34%
Rainfall 0.00 in
Snow Depth Not available.
7:05 AM 5:27 PM
Waxing Crescent, 3% visible
METAR KMLI 100452Z AUTO 30011KT 10SM CLR M11/M17 A3008 RMK AO2 SLP198 T11111167
Pressure 30.12 in
Visibility 10.0 miles
Clouds Clear
Windchill 5 °F
Dew Point -11 °F
Humidity 34%
Rainfall 0.00 in
Snow Depth Not available.
7:05 AM 5:27 PM
Waxing Crescent, 3% visible
METAR KMLI 100452Z AUTO 30011KT 10SM CLR M11/M17 A3008 RMK AO2 SLP198 T11111167

10-Day Weather Forecast

Almanac

Astronomy

Feb. 09, 2016 Rise Set
Actual Time
Civil Twilight
Nautical Twilight
Astronomical Twilight
Moon
Length of Visible Light
Length of Day
Tomorrow will be .
, % of the Moon is Illuminated

Today's Extremes

State Highs State Lows

Community

WunderPhotos

Upload Photos

1,891,818 photos uploaded!

WunderBlog® & News

Nearby

Air Quality

  Air Quality AQ Index Pollutant
Not available.

Snow Depth

Station Depth Elevation

Earthquake Activity

City Distance Mag. Time & Date
Minimum magnitude displayed is 2.5.

Coastal Water Temperatures

Place Temperature

Stations

Nearby Weather Stations

Station Location Temp. Windchill Dew Point Humidity Wind Precip. Elev Updated Type
                   

Watches & Warnings

There are currently no watches in effect.